Terminal Aerodrome Forecast
Issued by NWS

Home | Current Version | Previous Version | Text Only | Print | Product List | Glossary On
Versions: 1 2 3 4 5 6 7 8 9 10 11 12 13 14
034
FTAK31 PAJN 132330
TAFAGY
TAF
PAGY 132330Z 1400/1424 20008KT P6SM SCT020 OVC060
      TEMPO 1400/1402 05004KT
     FM140200 04007KT P6SM SCT030 OVC050
     FM141100 04008KT 6SM -RASN BR BKN025 OVC035
     FM141600 VRB05KT 4SM -RA BR BKN017 OVC025
     FM142000 20007KT P6SM -RA SCT030 OVC050
      AMD LTD TO CLD VIS AND WIND=

USA.gov is the U.S. government's official web portal to all federal, state and local government web resources and services.